This is the latest recevied weather packets stored in our database for station/object IU2GFL-13. If no packets are shown the sender has not sent any weather packets the latest 10 day(s).
| Time | Temp. | Humidity | Pressure | Rain* | Wind** | Luminosity | Snow |
|---|---|---|---|---|---|---|---|
| 1787423933 | 24.44° C | 57% | 991.9 hPa | - | - | - | - |
| 1787422729 | 25° C | 55% | 991.6 hPa | - | - | - | - |
| 1787421524 | 26.11° C | 52% | 991.4 hPa | - | - | - | - |
| 1787420320 | 27.22° C | 49% | 991.3 hPa | - | - | - | - |
| 1787419116 | 28.33° C | 46% | 991.1 hPa | - | - | - | - |
| 1787417911 | 28.89° C | 44% | 991.2 hPa | - | - | - | - |
| 1787416707 | 28.89° C | 44% | 991.2 hPa | - | - | - | - |
| 1787415503 | 29.44° C | 43% | 991.1 hPa | - | - | - | - |
| 1787414299 | 30° C | 43% | 991 hPa | - | - | - | - |
| 1787413094 | 30° C | 44% | 991 hPa | - | - | - | - |
| 1787410686 | 30° C | 45% | 991 hPa | - | - | - | - |
| 1787408277 | 30° C | 47% | 991.2 hPa | - | - | - | - |
| 1787407073 | 30° C | 47% | 991.2 hPa | - | - | - | - |
| 1787405869 | 28.89° C | 49% | 991.3 hPa | - | - | - | - |
| 1787404664 | 29.44° C | 49% | 991.4 hPa | - | - | - | - |
| 1787403460 | 29.44° C | 50% | 991.4 hPa | - | - | - | - |
| 1787402255 | 28.89° C | 52% | 991.7 hPa | - | - | - | - |
| 1787401051 | 28.89° C | 53% | 991.8 hPa | - | - | - | - |
| 1787399847 | 28.33° C | 55% | 991.8 hPa | - | - | - | - |
| 1787398642 | 28.33° C | 54% | 991.9 hPa | - | - | - | - |
| 1787397438 | 28.33° C | 55% | 992 hPa | - | - | - | - |
| 1787396234 | 27.78° C | 57% | 992 hPa | - | - | - | - |
| 1787395030 | 27.78° C | 58% | 991.9 hPa | - | - | - | - |
| 1787392621 | 26.11° C | 61% | 992 hPa | - | - | - | - |
| 1787391417 | 26.11° C | 61% | 992 hPa | - | - | - | - |
* Rain since midnight (hover to see other rain measurements)
** Current wind speed in m/s (hover to see current wind gust speed)